sensor_id;sensor_type;location;lat;lon;timestamp;P1;durP1;ratioP1;P2;durP2;ratioP2
20042;SDS011;10182;52.896;6.496;2022-08-21T00:03:47;8.20;;;6.60;;
20042;SDS011;10182;52.896;6.496;2022-08-21T00:08:49;7.23;;;6.30;;
20042;SDS011;10182;52.896;6.496;2022-08-21T00:13:50;9.50;;;6.97;;
20042;SDS011;10182;52.896;6.496;2022-08-21T00:18:53;11.43;;;6.60;;
20042;SDS011;10182;52.896;6.496;2022-08-21T00:23:55;10.20;;;6.57;;
20042;SDS011;10182;52.896;6.496;2022-08-21T00:28:57;10.10;;;7.50;;
20042;SDS011;10182;52.896;6.496;2022-08-21T00:34:00;8.30;;;6.80;;
20042;SDS011;10182;52.896;6.496;2022-08-21T00:39:02;8.93;;;6.73;;
20042;SDS011;10182;52.896;6.496;2022-08-21T00:44:05;10.53;;;7.37;;
20042;SDS011;10182;52.896;6.496;2022-08-21T00:49:10;8.20;;;6.73;;
20042;SDS011;10182;52.896;6.496;2022-08-21T00:54:13;9.90;;;6.53;;
20042;SDS011;10182;52.896;6.496;2022-08-21T00:59:16;10.63;;;7.13;;
20042;SDS011;10182;52.896;6.496;2022-08-21T01:04:20;10.00;;;7.00;;
20042;SDS011;10182;52.896;6.496;2022-08-21T01:09:23;9.70;;;7.20;;
20042;SDS011;10182;52.896;6.496;2022-08-21T01:14:25;9.33;;;7.27;;
20042;SDS011;10182;52.896;6.496;2022-08-21T01:19:28;6.87;;;6.17;;
20042;SDS011;10182;52.896;6.496;2022-08-21T01:24:32;11.83;;;7.30;;
20042;SDS011;10182;52.896;6.496;2022-08-21T01:29:36;11.43;;;6.63;;
20042;SDS011;10182;52.896;6.496;2022-08-21T01:34:41;9.80;;;7.33;;
20042;SDS011;10182;52.896;6.496;2022-08-21T01:39:45;9.80;;;7.50;;
20042;SDS011;10182;52.896;6.496;2022-08-21T01:44:47;8.80;;;7.43;;
20042;SDS011;10182;52.896;6.496;2022-08-21T01:49:49;8.70;;;7.77;;
20042;SDS011;10182;52.896;6.496;2022-08-21T01:54:52;11.80;;;8.13;;
20042;SDS011;10182;52.896;6.496;2022-08-21T01:59:54;9.93;;;8.00;;
20042;SDS011;10182;52.896;6.496;2022-08-21T02:04:55;11.73;;;8.77;;
20042;SDS011;10182;52.896;6.496;2022-08-21T02:09:58;12.93;;;9.07;;
20042;SDS011;10182;52.896;6.496;2022-08-21T02:15:00;10.43;;;8.03;;
20042;SDS011;10182;52.896;6.496;2022-08-21T02:20:03;11.93;;;8.60;;
20042;SDS011;10182;52.896;6.496;2022-08-21T02:25:07;9.47;;;8.30;;
20042;SDS011;10182;52.896;6.496;2022-08-21T02:30:10;10.17;;;8.10;;
20042;SDS011;10182;52.896;6.496;2022-08-21T02:35:13;12.80;;;8.50;;
20042;SDS011;10182;52.896;6.496;2022-08-21T02:40:18;11.93;;;8.93;;
20042;SDS011;10182;52.896;6.496;2022-08-21T02:45:21;10.07;;;8.87;;
20042;SDS011;10182;52.896;6.496;2022-08-21T02:50:24;10.63;;;8.70;;
20042;SDS011;10182;52.896;6.496;2022-08-21T02:55:30;10.47;;;8.90;;
20042;SDS011;10182;52.896;6.496;2022-08-21T03:00:33;13.93;;;9.93;;
20042;SDS011;10182;52.896;6.496;2022-08-21T03:05:37;12.53;;;10.00;;
20042;SDS011;10182;52.896;6.496;2022-08-21T03:10:41;10.03;;;8.87;;
20042;SDS011;10182;52.896;6.496;2022-08-21T03:15:45;10.50;;;8.23;;
20042;SDS011;10182;52.896;6.496;2022-08-21T03:20:46;8.90;;;7.80;;
20042;SDS011;10182;52.896;6.496;2022-08-21T03:25:50;11.73;;;9.17;;
20042;SDS011;10182;52.896;6.496;2022-08-21T03:30:52;12.73;;;9.70;;
20042;SDS011;10182;52.896;6.496;2022-08-21T03:35:59;12.83;;;10.23;;
20042;SDS011;10182;52.896;6.496;2022-08-21T03:41:04;11.90;;;10.13;;
20042;SDS011;10182;52.896;6.496;2022-08-21T03:46:07;17.53;;;11.10;;
20042;SDS011;10182;52.896;6.496;2022-08-21T03:51:09;13.07;;;10.47;;
20042;SDS011;10182;52.896;6.496;2022-08-21T03:56:12;14.30;;;10.80;;
20042;SDS011;10182;52.896;6.496;2022-08-21T04:01:13;14.13;;;11.60;;
20042;SDS011;10182;52.896;6.496;2022-08-21T04:06:15;13.57;;;10.23;;
20042;SDS011;10182;52.896;6.496;2022-08-21T04:11:19;13.97;;;11.70;;
20042;SDS011;10182;52.896;6.496;2022-08-21T04:16:21;19.40;;;12.53;;
20042;SDS011;10182;52.896;6.496;2022-08-21T04:21:22;13.93;;;12.23;;
20042;SDS011;10182;52.896;6.496;2022-08-21T04:26:26;16.90;;;12.90;;
20042;SDS011;10182;52.896;6.496;2022-08-21T04:31:27;14.73;;;11.63;;
20042;SDS011;10182;52.896;6.496;2022-08-21T04:36:29;18.03;;;11.73;;
20042;SDS011;10182;52.896;6.496;2022-08-21T04:41:32;20.90;;;11.93;;
20042;SDS011;10182;52.896;6.496;2022-08-21T04:46:34;14.50;;;12.13;;
20042;SDS011;10182;52.896;6.496;2022-08-21T04:51:36;15.07;;;11.70;;
20042;SDS011;10182;52.896;6.496;2022-08-21T04:56:41;15.10;;;12.00;;
20042;SDS011;10182;52.896;6.496;2022-08-21T05:01:46;12.20;;;10.90;;
20042;SDS011;10182;52.896;6.496;2022-08-21T05:06:49;17.77;;;11.87;;
20042;SDS011;10182;52.896;6.496;2022-08-21T05:11:54;15.80;;;10.43;;
20042;SDS011;10182;52.896;6.496;2022-08-21T05:16:56;13.37;;;9.87;;
20042;SDS011;10182;52.896;6.496;2022-08-21T05:21:58;11.50;;;8.87;;
20042;SDS011;10182;52.896;6.496;2022-08-21T05:27:02;9.73;;;8.70;;
20042;SDS011;10182;52.896;6.496;2022-08-21T05:32:07;11.70;;;8.43;;
20042;SDS011;10182;52.896;6.496;2022-08-21T05:37:10;10.07;;;8.07;;
20042;SDS011;10182;52.896;6.496;2022-08-21T05:42:14;11.07;;;8.20;;
20042;SDS011;10182;52.896;6.496;2022-08-21T05:47:16;10.70;;;7.63;;
20042;SDS011;10182;52.896;6.496;2022-08-21T05:52:18;9.53;;;7.80;;
20042;SDS011;10182;52.896;6.496;2022-08-21T05:57:21;10.67;;;7.83;;
20042;SDS011;10182;52.896;6.496;2022-08-21T06:02:23;12.23;;;7.40;;
20042;SDS011;10182;52.896;6.496;2022-08-21T06:07:25;14.10;;;7.53;;
20042;SDS011;10182;52.896;6.496;2022-08-21T06:12:28;11.90;;;7.27;;
20042;SDS011;10182;52.896;6.496;2022-08-21T06:17:29;9.97;;;6.93;;
20042;SDS011;10182;52.896;6.496;2022-08-21T06:22:31;7.73;;;6.60;;
20042;SDS011;10182;52.896;6.496;2022-08-21T06:27:34;13.47;;;6.97;;
20042;SDS011;10182;52.896;6.496;2022-08-21T06:32:36;11.77;;;7.03;;
20042;SDS011;10182;52.896;6.496;2022-08-21T06:37:37;12.03;;;7.20;;
20042;SDS011;10182;52.896;6.496;2022-08-21T06:42:40;10.63;;;6.13;;
20042;SDS011;10182;52.896;6.496;2022-08-21T06:47:42;12.73;;;6.73;;
20042;SDS011;10182;52.896;6.496;2022-08-21T06:52:44;9.73;;;6.10;;
20042;SDS011;10182;52.896;6.496;2022-08-21T06:57:47;13.37;;;6.13;;
20042;SDS011;10182;52.896;6.496;2022-08-21T07:02:48;12.43;;;5.93;;
20042;SDS011;10182;52.896;6.496;2022-08-21T07:07:50;11.20;;;5.70;;
20042;SDS011;10182;52.896;6.496;2022-08-21T07:12:53;15.03;;;5.47;;
20042;SDS011;10182;52.896;6.496;2022-08-21T07:17:55;8.03;;;4.57;;
20042;SDS011;10182;52.896;6.496;2022-08-21T07:22:59;13.43;;;5.27;;
20042;SDS011;10182;52.896;6.496;2022-08-21T07:28:05;11.97;;;5.07;;
20042;SDS011;10182;52.896;6.496;2022-08-21T07:33:07;13.70;;;5.17;;
20042;SDS011;10182;52.896;6.496;2022-08-21T07:38:09;15.27;;;5.87;;
20042;SDS011;10182;52.896;6.496;2022-08-21T07:43:12;11.83;;;4.70;;
20042;SDS011;10182;52.896;6.496;2022-08-21T07:48:16;6.33;;;3.53;;
20042;SDS011;10182;52.896;6.496;2022-08-21T07:53:18;9.87;;;3.73;;
20042;SDS011;10182;52.896;6.496;2022-08-21T07:58:21;11.27;;;3.70;;
20042;SDS011;10182;52.896;6.496;2022-08-21T08:03:23;10.80;;;3.90;;
20042;SDS011;10182;52.896;6.496;2022-08-21T08:08:25;9.13;;;3.70;;
20042;SDS011;10182;52.896;6.496;2022-08-21T08:13:28;9.60;;;3.67;;
20042;SDS011;10182;52.896;6.496;2022-08-21T08:18:30;8.57;;;4.00;;
20042;SDS011;10182;52.896;6.496;2022-08-21T08:23:32;9.40;;;3.70;;
20042;SDS011;10182;52.896;6.496;2022-08-21T08:28:35;9.10;;;4.47;;
20042;SDS011;10182;52.896;6.496;2022-08-21T08:33:37;8.83;;;3.50;;
20042;SDS011;10182;52.896;6.496;2022-08-21T08:38:39;8.63;;;2.90;;
20042;SDS011;10182;52.896;6.496;2022-08-21T08:43:44;7.37;;;2.57;;
20042;SDS011;10182;52.896;6.496;2022-08-21T08:48:52;8.73;;;2.83;;
20042;SDS011;10182;52.896;6.496;2022-08-21T08:53:59;4.73;;;2.07;;
20042;SDS011;10182;52.896;6.496;2022-08-21T08:59:08;8.13;;;2.10;;
20042;SDS011;10182;52.896;6.496;2022-08-21T09:04:17;5.73;;;2.00;;
20042;SDS011;10182;52.896;6.496;2022-08-21T09:09:29;10.70;;;2.50;;
20042;SDS011;10182;52.896;6.496;2022-08-21T09:14:44;12.07;;;2.23;;
20042;SDS011;10182;52.896;6.496;2022-08-21T09:19:59;6.67;;;2.33;;
20042;SDS011;10182;52.896;6.496;2022-08-21T09:25:11;6.67;;;2.10;;
20042;SDS011;10182;52.896;6.496;2022-08-21T09:30:23;9.97;;;2.43;;
20042;SDS011;10182;52.896;6.496;2022-08-21T09:35:27;8.63;;;3.13;;
20042;SDS011;10182;52.896;6.496;2022-08-21T09:40:30;7.07;;;2.30;;
20042;SDS011;10182;52.896;6.496;2022-08-21T09:45:37;7.33;;;2.43;;
20042;SDS011;10182;52.896;6.496;2022-08-21T09:50:40;8.90;;;2.60;;
20042;SDS011;10182;52.896;6.496;2022-08-21T09:55:48;8.17;;;2.53;;
20042;SDS011;10182;52.896;6.496;2022-08-21T10:01:14;4.47;;;2.13;;
20042;SDS011;10182;52.896;6.496;2022-08-21T10:06:22;8.67;;;2.70;;
20042;SDS011;10182;52.896;6.496;2022-08-21T10:11:25;8.73;;;2.43;;
20042;SDS011;10182;52.896;6.496;2022-08-21T10:16:35;8.63;;;2.43;;
20042;SDS011;10182;52.896;6.496;2022-08-21T10:21:47;7.13;;;2.60;;
20042;SDS011;10182;52.896;6.496;2022-08-21T10:27:03;4.83;;;2.43;;
20042;SDS011;10182;52.896;6.496;2022-08-21T10:32:16;5.00;;;2.33;;
20042;SDS011;10182;52.896;6.496;2022-08-21T10:37:31;7.87;;;2.40;;
20042;SDS011;10182;52.896;6.496;2022-08-21T10:42:48;8.33;;;2.27;;
20042;SDS011;10182;52.896;6.496;2022-08-21T10:48:01;7.20;;;2.77;;
20042;SDS011;10182;52.896;6.496;2022-08-21T10:53:11;10.77;;;2.93;;
20042;SDS011;10182;52.896;6.496;2022-08-21T10:58:25;6.50;;;2.13;;
20042;SDS011;10182;52.896;6.496;2022-08-21T11:03:33;6.07;;;2.30;;
20042;SDS011;10182;52.896;6.496;2022-08-21T11:08:41;7.67;;;2.07;;
20042;SDS011;10182;52.896;6.496;2022-08-21T11:13:46;5.90;;;1.70;;
20042;SDS011;10182;52.896;6.496;2022-08-21T11:18:55;6.33;;;2.47;;
20042;SDS011;10182;52.896;6.496;2022-08-21T11:24:14;7.17;;;2.50;;
20042;SDS011;10182;52.896;6.496;2022-08-21T11:29:27;6.73;;;2.87;;
20042;SDS011;10182;52.896;6.496;2022-08-21T11:40:03;7.20;;;2.47;;
20042;SDS011;10182;52.896;6.496;2022-08-21T11:45:14;8.53;;;2.20;;
20042;SDS011;10182;52.896;6.496;2022-08-21T11:50:25;7.70;;;1.80;;
20042;SDS011;10182;52.896;6.496;2022-08-21T11:55:31;6.13;;;1.90;;
20042;SDS011;10182;52.896;6.496;2022-08-21T12:00:39;8.07;;;2.10;;
20042;SDS011;10182;52.896;6.496;2022-08-21T12:05:52;4.57;;;1.80;;
20042;SDS011;10182;52.896;6.496;2022-08-21T12:10:59;7.40;;;2.17;;
20042;SDS011;10182;52.896;6.496;2022-08-21T12:16:11;7.33;;;2.43;;
20042;SDS011;10182;52.896;6.496;2022-08-21T12:21:23;8.23;;;2.63;;
20042;SDS011;10182;52.896;6.496;2022-08-21T12:26:27;8.30;;;2.50;;
20042;SDS011;10182;52.896;6.496;2022-08-21T12:31:30;9.20;;;2.43;;
20042;SDS011;10182;52.896;6.496;2022-08-21T12:36:40;9.23;;;2.20;;
20042;SDS011;10182;52.896;6.496;2022-08-21T12:41:46;6.87;;;2.73;;
20042;SDS011;10182;52.896;6.496;2022-08-21T12:46:54;4.07;;;2.27;;
20042;SDS011;10182;52.896;6.496;2022-08-21T12:52:02;5.30;;;2.17;;
20042;SDS011;10182;52.896;6.496;2022-08-21T12:57:18;7.77;;;2.33;;
20042;SDS011;10182;52.896;6.496;2022-08-21T13:02:23;7.13;;;2.30;;
20042;SDS011;10182;52.896;6.496;2022-08-21T13:07:29;6.53;;;2.10;;
20042;SDS011;10182;52.896;6.496;2022-08-21T13:12:33;6.87;;;2.00;;
20042;SDS011;10182;52.896;6.496;2022-08-21T13:17:38;6.70;;;2.23;;
20042;SDS011;10182;52.896;6.496;2022-08-21T13:22:44;6.57;;;2.70;;
20042;SDS011;10182;52.896;6.496;2022-08-21T13:27:56;7.17;;;2.60;;
20042;SDS011;10182;52.896;6.496;2022-08-21T13:33:01;8.00;;;2.93;;
20042;SDS011;10182;52.896;6.496;2022-08-21T13:38:09;6.97;;;2.53;;
20042;SDS011;10182;52.896;6.496;2022-08-21T13:43:11;8.40;;;2.70;;
20042;SDS011;10182;52.896;6.496;2022-08-21T13:48:14;6.47;;;2.37;;
20042;SDS011;10182;52.896;6.496;2022-08-21T13:53:22;6.60;;;2.97;;
20042;SDS011;10182;52.896;6.496;2022-08-21T13:58:30;8.07;;;2.63;;
20042;SDS011;10182;52.896;6.496;2022-08-21T14:03:34;4.50;;;2.00;;
20042;SDS011;10182;52.896;6.496;2022-08-21T14:08:40;6.40;;;2.37;;
20042;SDS011;10182;52.896;6.496;2022-08-21T14:13:43;4.40;;;2.30;;
20042;SDS011;10182;52.896;6.496;2022-08-21T14:18:51;5.83;;;2.20;;
20042;SDS011;10182;52.896;6.496;2022-08-21T14:29:26;8.67;;;2.07;;
20042;SDS011;10182;52.896;6.496;2022-08-21T14:34:28;4.70;;;1.80;;
20042;SDS011;10182;52.896;6.496;2022-08-21T14:39:32;7.30;;;2.47;;
20042;SDS011;10182;52.896;6.496;2022-08-21T14:44:33;7.77;;;2.07;;
20042;SDS011;10182;52.896;6.496;2022-08-21T14:49:35;6.43;;;2.30;;
20042;SDS011;10182;52.896;6.496;2022-08-21T14:54:38;7.27;;;2.27;;
20042;SDS011;10182;52.896;6.496;2022-08-21T14:59:40;4.93;;;1.60;;
20042;SDS011;10182;52.896;6.496;2022-08-21T15:04:42;6.30;;;2.63;;
20042;SDS011;10182;52.896;6.496;2022-08-21T15:09:45;6.07;;;1.77;;
20042;SDS011;10182;52.896;6.496;2022-08-21T15:14:46;5.43;;;1.97;;
20042;SDS011;10182;52.896;6.496;2022-08-21T15:19:48;6.13;;;2.10;;
20042;SDS011;10182;52.896;6.496;2022-08-21T15:24:51;8.17;;;2.33;;
20042;SDS011;10182;52.896;6.496;2022-08-21T15:29:53;6.27;;;1.97;;
20042;SDS011;10182;52.896;6.496;2022-08-21T15:34:55;6.77;;;2.30;;
20042;SDS011;10182;52.896;6.496;2022-08-21T15:39:59;6.33;;;1.90;;
20042;SDS011;10182;52.896;6.496;2022-08-21T15:45:02;7.43;;;1.93;;
20042;SDS011;10182;52.896;6.496;2022-08-21T15:50:05;4.07;;;1.97;;
20042;SDS011;10182;52.896;6.496;2022-08-21T15:55:10;5.93;;;1.90;;
20042;SDS011;10182;52.896;6.496;2022-08-21T16:00:14;4.10;;;1.53;;
20042;SDS011;10182;52.896;6.496;2022-08-21T16:05:17;4.60;;;1.80;;
20042;SDS011;10182;52.896;6.496;2022-08-21T16:10:22;4.77;;;1.93;;
20042;SDS011;10182;52.896;6.496;2022-08-21T16:15:25;5.80;;;1.60;;
20042;SDS011;10182;52.896;6.496;2022-08-21T16:20:27;4.20;;;2.07;;
20042;SDS011;10182;52.896;6.496;2022-08-21T16:25:31;4.13;;;1.80;;
20042;SDS011;10182;52.896;6.496;2022-08-21T16:30:36;6.70;;;1.80;;
20042;SDS011;10182;52.896;6.496;2022-08-21T16:35:37;6.50;;;1.80;;
20042;SDS011;10182;52.896;6.496;2022-08-21T16:40:40;7.07;;;2.17;;
20042;SDS011;10182;52.896;6.496;2022-08-21T16:45:43;6.03;;;2.00;;
20042;SDS011;10182;52.896;6.496;2022-08-21T16:50:44;5.67;;;1.53;;
20042;SDS011;10182;52.896;6.496;2022-08-21T16:55:48;5.80;;;1.80;;
20042;SDS011;10182;52.896;6.496;2022-08-21T17:00:51;5.13;;;1.80;;
20042;SDS011;10182;52.896;6.496;2022-08-21T17:05:52;9.07;;;2.13;;
20042;SDS011;10182;52.896;6.496;2022-08-21T17:10:55;4.47;;;1.53;;
20042;SDS011;10182;52.896;6.496;2022-08-21T17:15:58;7.97;;;1.63;;
20042;SDS011;10182;52.896;6.496;2022-08-21T17:21:00;4.63;;;1.50;;
20042;SDS011;10182;52.896;6.496;2022-08-21T17:26:03;5.80;;;1.87;;
20042;SDS011;10182;52.896;6.496;2022-08-21T17:31:06;3.60;;;2.00;;
20042;SDS011;10182;52.896;6.496;2022-08-21T17:36:09;6.30;;;2.30;;
20042;SDS011;10182;52.896;6.496;2022-08-21T17:41:12;7.60;;;2.10;;
20042;SDS011;10182;52.896;6.496;2022-08-21T17:46:16;5.93;;;1.90;;
20042;SDS011;10182;52.896;6.496;2022-08-21T17:51:21;4.80;;;1.93;;
20042;SDS011;10182;52.896;6.496;2022-08-21T17:56:25;8.00;;;2.93;;
20042;SDS011;10182;52.896;6.496;2022-08-21T18:01:32;8.67;;;2.27;;
20042;SDS011;10182;52.896;6.496;2022-08-21T18:06:35;5.60;;;2.20;;
20042;SDS011;10182;52.896;6.496;2022-08-21T18:11:38;6.13;;;2.17;;
20042;SDS011;10182;52.896;6.496;2022-08-21T18:16:41;7.07;;;2.37;;
20042;SDS011;10182;52.896;6.496;2022-08-21T18:21:43;10.33;;;2.60;;
20042;SDS011;10182;52.896;6.496;2022-08-21T18:26:46;6.67;;;2.27;;
20042;SDS011;10182;52.896;6.496;2022-08-21T18:31:49;6.87;;;1.93;;
20042;SDS011;10182;52.896;6.496;2022-08-21T18:36:52;7.57;;;2.43;;
20042;SDS011;10182;52.896;6.496;2022-08-21T18:41:56;5.30;;;2.10;;
20042;SDS011;10182;52.896;6.496;2022-08-21T18:47:00;9.17;;;2.20;;
20042;SDS011;10182;52.896;6.496;2022-08-21T18:52:04;6.43;;;2.27;;
20042;SDS011;10182;52.896;6.496;2022-08-21T18:57:07;5.37;;;2.30;;
20042;SDS011;10182;52.896;6.496;2022-08-21T19:02:09;7.83;;;2.33;;
20042;SDS011;10182;52.896;6.496;2022-08-21T19:07:11;6.90;;;2.60;;
20042;SDS011;10182;52.896;6.496;2022-08-21T19:12:16;6.90;;;2.20;;
20042;SDS011;10182;52.896;6.496;2022-08-21T19:17:23;9.83;;;2.60;;
20042;SDS011;10182;52.896;6.496;2022-08-21T19:22:25;6.53;;;2.30;;
20042;SDS011;10182;52.896;6.496;2022-08-21T19:27:28;6.27;;;1.90;;
20042;SDS011;10182;52.896;6.496;2022-08-21T19:32:30;6.77;;;2.30;;
20042;SDS011;10182;52.896;6.496;2022-08-21T19:37:32;7.30;;;2.37;;
20042;SDS011;10182;52.896;6.496;2022-08-21T19:42:35;6.33;;;2.37;;
20042;SDS011;10182;52.896;6.496;2022-08-21T19:47:38;6.73;;;2.17;;
20042;SDS011;10182;52.896;6.496;2022-08-21T19:52:44;6.37;;;2.40;;
20042;SDS011;10182;52.896;6.496;2022-08-21T19:57:47;7.97;;;2.93;;
20042;SDS011;10182;52.896;6.496;2022-08-21T20:02:49;6.20;;;2.50;;
20042;SDS011;10182;52.896;6.496;2022-08-21T20:07:51;6.37;;;2.87;;
20042;SDS011;10182;52.896;6.496;2022-08-21T20:12:54;7.97;;;2.60;;
20042;SDS011;10182;52.896;6.496;2022-08-21T20:17:56;6.07;;;2.17;;
20042;SDS011;10182;52.896;6.496;2022-08-21T20:22:58;6.83;;;2.90;;
20042;SDS011;10182;52.896;6.496;2022-08-21T20:28:01;8.17;;;2.80;;
20042;SDS011;10182;52.896;6.496;2022-08-21T20:33:04;9.07;;;2.77;;
20042;SDS011;10182;52.896;6.496;2022-08-21T20:38:06;4.50;;;2.50;;
20042;SDS011;10182;52.896;6.496;2022-08-21T20:43:09;4.90;;;2.43;;
20042;SDS011;10182;52.896;6.496;2022-08-21T20:48:12;4.97;;;2.23;;
20042;SDS011;10182;52.896;6.496;2022-08-21T20:53:18;5.53;;;2.73;;
20042;SDS011;10182;52.896;6.496;2022-08-21T20:58:33;6.60;;;2.77;;
20042;SDS011;10182;52.896;6.496;2022-08-21T21:03:39;7.50;;;2.70;;
20042;SDS011;10182;52.896;6.496;2022-08-21T21:08:45;6.23;;;2.97;;
20042;SDS011;10182;52.896;6.496;2022-08-21T21:13:52;7.63;;;2.53;;
20042;SDS011;10182;52.896;6.496;2022-08-21T21:18:59;8.03;;;3.23;;
20042;SDS011;10182;52.896;6.496;2022-08-21T21:24:06;6.90;;;3.20;;
20042;SDS011;10182;52.896;6.496;2022-08-21T21:29:14;9.80;;;3.13;;
20042;SDS011;10182;52.896;6.496;2022-08-21T21:34:20;11.67;;;3.63;;
20042;SDS011;10182;52.896;6.496;2022-08-21T21:39:25;8.37;;;3.13;;
20042;SDS011;10182;52.896;6.496;2022-08-21T21:44:35;8.00;;;3.27;;
20042;SDS011;10182;52.896;6.496;2022-08-21T21:49:54;8.13;;;3.53;;
20042;SDS011;10182;52.896;6.496;2022-08-21T21:55:06;10.60;;;4.00;;
20042;SDS011;10182;52.896;6.496;2022-08-21T22:00:23;8.53;;;3.93;;
20042;SDS011;10182;52.896;6.496;2022-08-21T22:05:32;12.53;;;3.17;;
20042;SDS011;10182;52.896;6.496;2022-08-21T22:10:55;6.60;;;3.27;;
20042;SDS011;10182;52.896;6.496;2022-08-21T22:16:04;8.03;;;3.40;;
20042;SDS011;10182;52.896;6.496;2022-08-21T22:21:09;11.27;;;3.70;;
20042;SDS011;10182;52.896;6.496;2022-08-21T22:26:15;5.97;;;3.30;;
20042;SDS011;10182;52.896;6.496;2022-08-21T22:31:22;7.60;;;3.00;;
20042;SDS011;10182;52.896;6.496;2022-08-21T22:36:26;8.63;;;2.90;;
20042;SDS011;10182;52.896;6.496;2022-08-21T22:41:30;7.37;;;2.90;;
20042;SDS011;10182;52.896;6.496;2022-08-21T22:46:41;8.37;;;3.60;;
20042;SDS011;10182;52.896;6.496;2022-08-21T22:51:45;7.23;;;3.40;;
20042;SDS011;10182;52.896;6.496;2022-08-21T22:56:56;7.10;;;3.80;;
20042;SDS011;10182;52.896;6.496;2022-08-21T23:02:03;10.40;;;3.47;;
20042;SDS011;10182;52.896;6.496;2022-08-21T23:07:07;7.00;;;3.70;;
20042;SDS011;10182;52.896;6.496;2022-08-21T23:12:27;7.33;;;3.60;;
20042;SDS011;10182;52.896;6.496;2022-08-21T23:17:37;8.87;;;3.63;;
20042;SDS011;10182;52.896;6.496;2022-08-21T23:22:47;8.07;;;3.43;;
20042;SDS011;10182;52.896;6.496;2022-08-21T23:28:02;10.00;;;4.00;;
20042;SDS011;10182;52.896;6.496;2022-08-21T23:38:44;10.23;;;3.57;;
20042;SDS011;10182;52.896;6.496;2022-08-21T23:44:00;8.73;;;3.37;;
20042;SDS011;10182;52.896;6.496;2022-08-21T23:49:17;8.27;;;3.60;;
20042;SDS011;10182;52.896;6.496;2022-08-21T23:54:30;3.97;;;3.10;;
20042;SDS011;10182;52.896;6.496;2022-08-21T23:59:42;6.70;;;4.07;;
